메인 페이지
METAR-TAF:

METAR-TAF

공항 :

시더래피즈, 아이오와, 미국

위도: 41-53-04N, 경도: 091-42-38W, 고도: 263m

현재 날씨관측

예보는 1 시간 0분 전, 21:52시(UTC)에 발표되었습니다.
10kt
온도 2°C
습도 64%
기압 1023 hPa
시정: 16.1km
고도 3800ft 상공 흐림

METAR: KCID 252152Z 01010KT 10SM OVC038 02/M04 A3020 RMK AO2 SLP233 T00221039

시각: 17:52 (22:52 UTC)

예보

예보는 5 시간 25분 전, 17:27시(UTC)에 발표되었습니다.
예보 대상 시간: 25일 18시부터 26일 18시까지 (UTC)
북동10kt
시정: 10km
고도 4000ft 상공 흐림
25일 2300시부터 (UTC)
북북동10kt
시정: 10km
고도 2500ft 상공 흐림
확률 30%
26일 03시부터 26일 06시까지 (UTC)
시정: 6.4km
고도 900ft 상공 흐림
약한눈
26일 0600시부터 (UTC)
12kt
시정: 8.0km
고도 700ft 상공 흐림
약한눈
26일 0900시부터 (UTC)
북북서13kt
시정: 3.2km
고도 700ft 상공 흐림
약한눈
26일 1400시부터 (UTC)
북북서12kt
시정: 8.0km
고도 700ft 상공 구름 보통
고도 1500ft 상공 흐림
약한눈

TAF: KCID 251727Z 2518/2618 04010KT P6SM OVC040 FM252300 02010KT P6SM OVC025 PROB30 2603/2606 4SM -SN OVC009 FM260600 35012KT 5SM -SN OVC007 FM260900 34013KT 2SM -SN OVC007 FM261400 34012KT 5SM -SN SCT007 OVC015

4,000개 이상의 공항 관측 자료 및 예보 (METAR 및 TAF 보고).

지도상에서 검색 가능한 기상관측소가 노란 점과 빨간 점으로 표시되어 있습니다.

기상관측소 명을 보려면 표시 위로 마우스를 이동하세요.

날씨 관측과 예보를 보려면 클릭하세요.

지도 변경 : 확대하려면 엑스 표시가 있는 녹색 버튼, 축소하려면 빼기 표시가 있는 녹색 버튼, 다음 페이지의 지도를 보려면 녹색 화살표를 클릭하세요.


METAR-TAF: